Time;durP1;ratioP1;P1;durP2;ratioP2;P2;SDS_P1;SDS_P2;PMS_P1;PMS_P2;Temp;Humidity;BMP_temperature;BMP_pressure;BME280_temperature;BME280_humidity;BME280_pressure;Samples;Min_cycle;Max_cycle;Signal;HPM_P1;HPM_P2
2022/03/26 00:01:37;;;;;;;;;;;18.70;55.90;;;;;;5032922;28;698;-71
2022/03/26 00:04:03;;;;;;;;;;;18.70;55.90;;;;;;5033009;28;681;-71
2022/03/26 00:06:28;;;;;;;;;;;18.70;56.00;;;;;;5031656;28;804;-72
2022/03/26 00:08:54;;;;;;;;;;;18.70;56.00;;;;;;5015074;28;1180;-72
2022/03/26 00:11:20;;;;;;;;;;;18.70;56.00;;;;;;5032765;28;855;-72
2022/03/26 00:13:45;;;;;;;;;;;18.60;56.00;;;;;;5032891;28;930;-73
2022/03/26 00:16:10;;;;;;;;;;;18.60;56.00;;;;;;5032498;28;894;-74
2022/03/26 00:18:36;;;;;;;;;;;18.60;56.00;;;;;;5031555;28;1963;-73
2022/03/26 00:21:01;;;;;;;;;;;18.60;56.10;;;;;;5015034;28;1569;-73
2022/03/26 00:23:27;;;;;;;;;;;18.60;56.10;;;;;;5033282;28;879;-73
2022/03/26 00:25:52;;;;;;;;;;;18.60;56.10;;;;;;5031312;28;939;-73
2022/03/26 00:28:18;;;;;;;;;;;18.60;56.10;;;;;;5032909;28;1237;-73
2022/03/26 00:30:43;;;;;;;;;;;18.60;56.10;;;;;;5032635;28;847;-73
2022/03/26 00:33:09;;;;;;;;;;;18.60;56.20;;;;;;5032721;28;864;-73
2022/03/26 00:35:35;;;;;;;;;;;18.60;56.20;;;;;;5032704;28;675;-73
2022/03/26 00:38:00;;;;;;;;;;;18.60;56.20;;;;;;5011824;28;1902;-73
2022/03/26 00:40:25;;;;;;;;;;;18.60;56.20;;;;;;5012420;28;1011;-73
2022/03/26 00:42:51;;;;;;;;;;;18.60;56.20;;;;;;5016720;28;706;-73
2022/03/26 00:45:16;;;;;;;;;;;18.60;56.20;;;;;;5015225;28;1287;-73
2022/03/26 00:47:42;;;;;;;;;;;18.60;56.20;;;;;;5016365;28;855;-74
2022/03/26 00:50:07;;;;;;;;;;;18.60;56.30;;;;;;5016428;28;895;-73
2022/03/26 00:52:33;;;;;;;;;;;18.60;56.30;;;;;;5015245;28;1049;-73
2022/03/26 00:54:58;;;;;;;;;;;18.50;56.20;;;;;;5016124;28;890;-73
2022/03/26 00:57:24;;;;;;;;;;;18.50;56.30;;;;;;5016185;28;891;-73
2022/03/26 00:59:49;;;;;;;;;;;18.50;56.30;;;;;;5016033;28;1906;-73
2022/03/26 01:02:16;;;;;;;;;;;18.50;56.30;;;;;;5016318;28;886;-73
2022/03/26 01:04:41;;;;;;;;;;;18.50;56.30;;;;;;5015282;28;794;-74
2022/03/26 01:07:07;;;;;;;;;;;18.50;56.40;;;;;;5014701;28;1373;-73
2022/03/26 01:09:32;;;;;;;;;;;18.50;56.30;;;;;;5015898;28;1215;-73
2022/03/26 01:11:58;;;;;;;;;;;18.50;56.40;;;;;;5015932;28;910;-73
2022/03/26 01:14:23;;;;;;;;;;;18.50;56.40;;;;;;5015922;28;886;-73
2022/03/26 01:16:49;;;;;;;;;;;18.50;56.40;;;;;;5015802;28;898;-74
2022/03/26 01:19:15;;;;;;;;;;;18.50;56.40;;;;;;5014602;28;1938;-73
2022/03/26 01:21:40;;;;;;;;;;;18.50;56.50;;;;;;5015969;28;865;-73
2022/03/26 01:24:06;;;;;;;;;;;18.50;56.60;;;;;;5015735;28;780;-73
2022/03/26 01:26:31;;;;;;;;;;;18.50;56.50;;;;;;5016259;28;1182;-73
2022/03/26 01:28:57;;;;;;;;;;;18.50;56.50;;;;;;5035760;28;1199;-73
2022/03/26 01:31:22;;;;;;;;;;;18.50;56.50;;;;;;5034285;28;974;-74
2022/03/26 01:33:48;;;;;;;;;;;18.50;56.50;;;;;;5035474;28;922;-73
2022/03/26 01:36:13;;;;;;;;;;;18.50;56.50;;;;;;5035813;28;1182;-73
2022/03/26 01:38:39;;;;;;;;;;;18.50;56.50;;;;;;5034951;28;1914;-73
2022/03/26 01:41:04;;;;;;;;;;;18.50;56.50;;;;;;5050655;28;907;-74
2022/03/26 01:43:30;;;;;;;;;;;18.50;56.60;;;;;;5035302;28;950;-73
2022/03/26 01:45:55;;;;;;;;;;;18.50;56.50;;;;;;5035055;28;974;-73
2022/03/26 01:48:20;;;;;;;;;;;18.50;56.60;;;;;;5035182;28;1226;-73
2022/03/26 01:50:46;;;;;;;;;;;18.50;56.60;;;;;;5035150;28;1069;-73
2022/03/26 01:53:11;;;;;;;;;;;18.50;56.60;;;;;;5034421;28;859;-74
2022/03/26 01:55:37;;;;;;;;;;;18.50;56.60;;;;;;5035011;28;812;-74
2022/03/26 01:58:02;;;;;;;;;;;18.50;56.60;;;;;;5050225;28;1910;-73
2022/03/26 02:00:28;;;;;;;;;;;18.40;56.60;;;;;;5035016;28;1069;-73
2022/03/26 02:02:54;;;;;;;;;;;18.40;56.60;;;;;;5050511;28;808;-73
2022/03/26 02:05:20;;;;;;;;;;;18.40;56.60;;;;;;5050375;28;789;-74
2022/03/26 02:07:46;;;;;;;;;;;18.40;56.60;;;;;;5034529;28;1267;-73
2022/03/26 02:10:12;;;;;;;;;;;18.40;56.60;;;;;;5050693;28;1010;-74
2022/03/26 02:12:37;;;;;;;;;;;18.40;56.60;;;;;;5050452;28;733;-73
2022/03/26 02:15:03;;;;;;;;;;;18.40;56.60;;;;;;5050113;28;839;-73
2022/03/26 02:17:29;;;;;;;;;;;18.40;56.70;;;;;;5049812;28;958;-73
2022/03/26 02:19:55;;;;;;;;;;;18.40;56.70;;;;;;5034474;28;1965;-73
2022/03/26 02:22:21;;;;;;;;;;;18.40;56.70;;;;;;5034441;28;902;-73
2022/03/26 02:24:47;;;;;;;;;;;18.40;56.70;;;;;;5049791;28;926;-73
2022/03/26 02:27:12;;;;;;;;;;;18.40;56.70;;;;;;5040578;28;1281;-73
2022/03/26 02:29:37;;;;;;;;;;;18.40;56.70;;;;;;5054304;28;1236;-73
2022/03/26 02:32:03;;;;;;;;;;;18.40;56.70;;;;;;5053219;28;797;-73
2022/03/26 02:34:29;;;;;;;;;;;18.40;56.70;;;;;;5053639;28;1017;-74
2022/03/26 02:36:57;;;;;;;;;;;18.40;56.70;;;;;;5041618;28;1254;-73
2022/03/26 02:39:23;;;;;;;;;;;18.40;56.70;;;;;;5032770;28;1898;-73
2022/03/26 02:41:48;;;;;;;;;;;18.40;56.80;;;;;;5034340;28;702;-73
2022/03/26 02:44:13;;;;;;;;;;;18.40;56.80;;;;;;5034070;28;841;-74
2022/03/26 02:46:39;;;;;;;;;;;18.40;56.80;;;;;;5032621;28;860;-73
2022/03/26 02:49:04;;;;;;;;;;;18.40;57.30;;;;;;5034096;28;1200;-73
2022/03/26 02:51:30;;;;;;;;;;;18.40;56.80;;;;;;5032606;28;855;-73
2022/03/26 02:53:55;;;;;;;;;;;18.40;56.80;;;;;;5032829;28;875;-73
2022/03/26 02:56:21;;;;;;;;;;;18.30;56.70;;;;;;5033486;28;846;-73
2022/03/26 02:58:46;;;;;;;;;;;18.30;56.80;;;;;;5032618;28;1930;-73
2022/03/26 03:01:13;;;;;;;;;;;18.30;56.80;;;;;;5032491;28;1414;-73
2022/03/26 03:03:38;;;;;;;;;;;18.30;56.80;;;;;;5033214;28;863;-73
2022/03/26 03:06:04;;;;;;;;;;;18.30;56.80;;;;;;5033126;28;1013;-73
2022/03/26 03:08:29;;;;;;;;;;;18.30;56.80;;;;;;5033596;28;1214;-73
2022/03/26 03:10:54;;;;;;;;;;;18.30;56.80;;;;;;5033538;28;890;-73
2022/03/26 03:13:22;;;;;;;;;;;18.30;56.80;;;;;;5033574;28;926;-73
2022/03/26 03:15:50;;;;;;;;;;;18.30;56.80;;;;;;5033290;28;851;-73
2022/03/26 03:18:16;;;;;;;;;;;18.30;56.80;;;;;;5033430;28;1898;-74
2022/03/26 03:20:41;;;;;;;;;;;18.30;56.80;;;;;;5033301;28;859;-73
2022/03/26 03:23:07;;;;;;;;;;;18.30;56.90;;;;;;5033844;28;722;-73
2022/03/26 03:25:32;;;;;;;;;;;18.30;56.90;;;;;;5033108;28;792;-74
2022/03/26 03:27:58;;;;;;;;;;;18.30;56.90;;;;;;5045921;28;1307;-73
2022/03/26 03:30:24;;;;;;;;;;;18.30;56.90;;;;;;5053360;28;827;-73
2022/03/26 03:32:50;;;;;;;;;;;18.30;56.90;;;;;;5051895;28;926;-73
2022/03/26 03:35:16;;;;;;;;;;;18.30;56.90;;;;;;5052974;28;854;-72
2022/03/26 03:37:41;;;;;;;;;;;18.30;56.90;;;;;;5048596;28;1158;-73
2022/03/26 03:40:07;;;;;;;;;;;18.30;57.00;;;;;;5032347;23;2149;-75
2022/03/26 03:42:32;;;;;;;;;;;18.30;57.00;;;;;;5031849;28;1210;-75
2022/03/26 03:44:58;;;;;;;;;;;18.30;57.00;;;;;;5033206;28;913;-75
2022/03/26 03:47:24;;;;;;;;;;;18.30;56.90;;;;;;5031678;28;776;-75
2022/03/26 03:49:49;;;;;;;;;;;18.30;56.90;;;;;;5031924;28;1217;-75
2022/03/26 03:52:15;;;;;;;;;;;18.30;57.00;;;;;;5031909;28;889;-75
2022/03/26 03:54:40;;;;;;;;;;;18.30;57.00;;;;;;5031721;28;846;-75
2022/03/26 03:57:06;;;;;;;;;;;18.30;57.00;;;;;;5031515;28;1164;-75
2022/03/26 03:59:31;;;;;;;;;;;18.30;57.00;;;;;;5031634;28;1906;-75
2022/03/26 04:01:56;;;;;;;;;;;18.30;57.00;;;;;;5031751;28;1079;-75
2022/03/26 04:04:22;;;;;;;;;;;18.30;57.00;;;;;;5032763;28;1028;-75
2022/03/26 04:06:47;;;;;;;;;;;18.30;57.00;;;;;;5032623;28;1006;-75
2022/03/26 04:09:13;;;;;;;;;;;18.30;57.00;;;;;;5032796;28;1261;-74
2022/03/26 04:11:38;;;;;;;;;;;18.30;57.00;;;;;;5032768;28;683;-75
2022/03/26 04:14:05;;;;;;;;;;;18.30;57.00;;;;;;5032866;28;687;-75
2022/03/26 04:16:30;;;;;;;;;;;18.30;57.00;;;;;;5035201;28;812;-75
2022/03/26 04:18:58;;;;;;;;;;;18.30;57.10;;;;;;5018804;28;1890;-75
2022/03/26 04:21:23;;;;;;;;;;;18.30;57.10;;;;;;5036715;28;807;-75
2022/03/26 04:23:49;;;;;;;;;;;18.30;57.00;;;;;;5036771;28;879;-75
2022/03/26 04:26:14;;;;;;;;;;;18.30;57.10;;;;;;5018593;28;1322;-75
2022/03/26 04:28:40;;;;;;;;;;;18.30;57.10;;;;;;5053867;28;1220;-75
2022/03/26 04:31:05;;;;;;;;;;;18.30;57.10;;;;;;5038491;28;984;-75
2022/03/26 04:33:30;;;;;;;;;;;18.30;57.10;;;;;;5056460;28;803;-75
2022/03/26 04:35:56;;;;;;;;;;;18.30;57.10;;;;;;5051988;28;1087;-75
2022/03/26 04:38:21;;;;;;;;;;;18.30;57.10;;;;;;5035843;28;1875;-75
2022/03/26 04:40:49;;;;;;;;;;;18.30;57.70;;;;;;5056231;28;1069;-75
2022/03/26 04:43:15;;;;;;;;;;;18.30;57.10;;;;;;5038454;28;1402;-75
2022/03/26 04:45:40;;;;;;;;;;;18.30;57.10;;;;;;5038256;28;878;-75
2022/03/26 04:48:06;;;;;;;;;;;18.30;57.10;;;;;;5056034;28;712;-75
2022/03/26 04:50:31;;;;;;;;;;;18.30;57.10;;;;;;5056195;28;1285;-75
2022/03/26 04:52:57;;;;;;;;;;;18.30;57.20;;;;;;5038348;28;942;-75
2022/03/26 04:55:22;;;;;;;;;;;18.30;57.10;;;;;;5038487;28;764;-75
2022/03/26 04:57:48;;;;;;;;;;;18.30;57.10;;;;;;5037828;28;1948;-74
2022/03/26 05:00:14;;;;;;;;;;;18.30;57.20;;;;;;5038109;28;1188;-74
2022/03/26 05:02:39;;;;;;;;;;;18.20;57.10;;;;;;5055920;28;823;-75
2022/03/26 05:05:05;;;;;;;;;;;18.20;57.10;;;;;;5037892;28;1157;-75
2022/03/26 05:07:46;;;;;;;;;;;18.20;57.10;;;;;;5055994;28;1018;-75
2022/03/26 05:10:14;;;;;;;;;;;18.20;57.10;;;;;;5040241;28;1374;-75
2022/03/26 05:12:40;;;;;;;;;;;18.20;57.20;;;;;;5037879;28;1522;-75
2022/03/26 05:15:06;;;;;;;;;;;18.20;57.20;;;;;;5055599;28;951;-75
2022/03/26 05:17:31;;;;;;;;;;;18.20;57.20;;;;;;5037674;28;1038;-75
2022/03/26 05:19:56;;;;;;;;;;;18.20;57.20;;;;;;5055360;28;1894;-75
2022/03/26 05:22:22;;;;;;;;;;;18.20;57.20;;;;;;5055642;28;891;-75
2022/03/26 05:24:47;;;;;;;;;;;18.20;57.20;;;;;;5037490;28;1061;-75
2022/03/26 05:27:13;;;;;;;;;;;18.20;57.80;;;;;;5043010;28;1275;-75
2022/03/26 05:29:38;;;;;;;;;;;18.20;57.20;;;;;;5057347;28;1168;-75
2022/03/26 05:32:04;;;;;;;;;;;18.20;57.20;;;;;;5057276;28;1356;-75
2022/03/26 05:34:29;;;;;;;;;;;18.20;57.20;;;;;;5057411;28;1178;-74
2022/03/26 05:36:55;;;;;;;;;;;18.20;57.20;;;;;;5059869;28;1680;-72
2022/03/26 05:39:20;;;;;;;;;;;18.20;57.20;;;;;;5034084;28;2047;-70
2022/03/26 05:41:46;;;;;;;;;;;18.20;57.20;;;;;;5054099;28;1003;-70
2022/03/26 05:44:12;;;;;;;;;;;18.30;57.20;;;;;;5053920;28;971;-78
2022/03/26 05:46:37;;;;;;;;;;;18.30;57.10;;;;;;5036572;28;1062;-73
2022/03/26 05:49:03;;;;;;;;;;;18.30;57.10;;;;;;5036579;28;2158;-69
2022/03/26 05:51:29;;;;;;;;;;;18.30;57.00;;;;;;5054643;28;1034;-75
2022/03/26 05:53:54;;;;;;;;;;;18.40;56.90;;;;;;5037008;28;1080;-70
2022/03/26 05:56:20;;;;;;;;;;;18.40;56.80;;;;;;5054676;28;942;-70
2022/03/26 05:58:45;;;;;;;;;;;18.50;56.70;;;;;;5054623;28;1901;-71
2022/03/26 06:01:11;;;;;;;;;;;18.50;56.70;;;;;;5054567;28;918;-72
2022/03/26 06:03:36;;;;;;;;;;;18.50;56.60;;;;;;5054792;28;927;-69
2022/03/26 06:06:02;;;;;;;;;;;18.60;56.50;;;;;;5054377;28;910;-70
2022/03/26 06:08:27;;;;;;;;;;;18.60;56.40;;;;;;5054653;28;1285;-70
2022/03/26 06:10:52;;;;;;;;;;;18.60;56.30;;;;;;5054543;28;1049;-70
2022/03/26 06:13:18;;;;;;;;;;;18.60;56.20;;;;;;5054542;28;1037;-69
2022/03/26 06:15:43;;;;;;;;;;;18.70;56.20;;;;;;5053983;28;694;-69
2022/03/26 06:18:09;;;;;;;;;;;18.70;56.10;;;;;;5036591;28;1961;-70
2022/03/26 06:20:35;;;;;;;;;;;18.70;56.10;;;;;;5054318;28;846;-70
2022/03/26 06:23:00;;;;;;;;;;;18.70;56.00;;;;;;5036582;28;820;-69
2022/03/26 06:25:26;;;;;;;;;;;18.80;56.00;;;;;;5054214;28;835;-70
2022/03/26 06:27:51;;;;;;;;;;;18.80;56.00;;;;;;5054061;28;1255;-72
2022/03/26 06:30:17;;;;;;;;;;;18.70;55.90;;;;;;5036107;28;1221;-69
2022/03/26 06:32:42;;;;;;;;;;;18.80;55.90;;;;;;5036280;28;1344;-73
2022/03/26 06:35:08;;;;;;;;;;;18.80;54.70;;;;;;5036252;28;876;-72
2022/03/26 06:37:33;;;;;;;;;;;18.80;54.70;;;;;;5049410;28;2173;-74
2022/03/26 06:39:59;;;;;;;;;;;18.80;54.30;;;;;;5030719;28;1902;-73
2022/03/26 06:42:25;;;;;;;;;;;18.80;54.30;;;;;;5036076;28;880;-73
2022/03/26 06:44:50;;;;;;;;;;;18.80;54.30;;;;;;5035831;28;1188;-73
2022/03/26 06:47:16;;;;;;;;;;;18.80;54.30;;;;;;5036252;28;780;-73
2022/03/26 06:49:42;;;;;;;;;;;18.80;54.30;;;;;;5035896;28;1473;-71
2022/03/26 06:52:08;;;;;;;;;;;18.90;54.40;;;;;;5035919;28;943;-70
2022/03/26 06:54:33;;;;;;;;;;;18.90;54.40;;;;;;5054223;28;966;-70
2022/03/26 06:56:59;;;;;;;;;;;18.90;54.40;;;;;;5053335;28;784;-70
2022/03/26 06:59:24;;;;;;;;;;;18.90;54.40;;;;;;5053300;28;1906;-71
2022/03/26 07:01:49;;;;;;;;;;;18.90;54.50;;;;;;5053720;28;828;-74
2022/03/26 07:04:15;;;;;;;;;;;18.90;54.60;;;;;;5053516;28;847;-73
2022/03/26 07:06:40;;;;;;;;;;;18.90;54.60;;;;;;5035454;28;887;-73
2022/03/26 07:09:06;;;;;;;;;;;18.90;54.70;;;;;;5035416;28;1187;-73
2022/03/26 07:11:31;;;;;;;;;;;18.90;54.70;;;;;;5035625;28;903;-72
2022/03/26 07:13:57;;;;;;;;;;;18.90;55.30;;;;;;5035331;28;1069;-72
2022/03/26 07:16:22;;;;;;;;;;;18.90;54.80;;;;;;5053377;28;843;-70
2022/03/26 07:18:47;;;;;;;;;;;18.90;54.80;;;;;;5053169;28;1894;-70
2022/03/26 07:21:13;;;;;;;;;;;18.90;54.80;;;;;;5053285;28;765;-70
2022/03/26 07:23:38;;;;;;;;;;;18.90;55.40;;;;;;5035477;28;763;-71
2022/03/26 07:26:04;;;;;;;;;;;18.90;54.80;;;;;;5053428;28;760;-75
2022/03/26 07:28:29;;;;;;;;;;;18.90;54.80;;;;;;5070080;28;1358;-72
2022/03/26 07:30:55;;;;;;;;;;;19.00;54.90;;;;;;5055127;28;815;-70
2022/03/26 07:33:20;;;;;;;;;;;19.00;54.90;;;;;;5073200;28;810;-74
2022/03/26 07:35:46;;;;;;;;;;;18.90;54.80;;;;;;5071335;28;1114;-73
2022/03/26 07:38:12;;;;;;;;;;;19.00;54.90;;;;;;5052995;28;1906;-73
2022/03/26 07:40:37;;;;;;;;;;;19.00;54.90;;;;;;5053280;28;857;-71
2022/03/26 07:43:02;;;;;;;;;;;19.00;54.90;;;;;;5053026;28;965;-71
2022/03/26 07:45:28;;;;;;;;;;;19.00;54.90;;;;;;5052621;28;934;-71
2022/03/26 07:47:53;;;;;;;;;;;19.00;54.90;;;;;;5035230;28;1054;-74
2022/03/26 07:50:19;;;;;;;;;;;19.00;54.90;;;;;;5034416;28;1278;-71
2022/03/26 07:52:44;;;;;;;;;;;19.00;54.90;;;;;;5052829;28;906;-71
2022/03/26 07:55:10;;;;;;;;;;;19.00;54.90;;;;;;5052691;28;959;-72
2022/03/26 07:57:36;;;;;;;;;;;19.00;54.90;;;;;;5034311;28;832;-73
2022/03/26 08:00:01;;;;;;;;;;;19.00;54.90;;;;;;5050660;28;1910;-72
2022/03/26 08:02:26;;;;;;;;;;;19.00;55.00;;;;;;5032493;28;2181;-72
2022/03/26 08:04:52;;;;;;;;;;;19.10;55.00;;;;;;5043133;28;1095;-72
2022/03/26 08:07:19;;;;;;;;;;;19.10;54.90;;;;;;5043371;28;1378;-72
2022/03/26 08:09:45;;;;;;;;;;;19.10;54.80;;;;;;5052735;28;1298;-72
2022/03/26 08:12:10;;;;;;;;;;;19.20;54.70;;;;;;5051246;28;1088;-72
2022/03/26 08:14:35;;;;;;;;;;;19.30;54.60;;;;;;5041348;28;1084;-72
2022/03/26 08:17:01;;;;;;;;;;;19.40;54.80;;;;;;5050846;28;783;-72
2022/03/26 08:19:27;;;;;;;;;;;19.40;55.00;;;;;;5052525;28;1955;-72
2022/03/26 08:21:53;;;;;;;;;;;19.40;55.20;;;;;;5052570;28;811;-72
2022/03/26 08:24:18;;;;;;;;;;;19.50;55.20;;;;;;5051360;28;1398;-72
2022/03/26 08:26:44;;;;;;;;;;;19.50;55.50;;;;;;5052098;28;1227;-71
2022/03/26 08:29:09;;;;;;;;;;;19.60;55.80;;;;;;5034558;28;1212;-71
2022/03/26 08:31:35;;;;;;;;;;;19.60;55.80;;;;;;5034689;28;773;-72
2022/03/26 08:34:01;;;;;;;;;;;19.60;55.60;;;;;;5052453;28;800;-72
2022/03/26 08:36:26;;;;;;;;;;;19.60;55.90;;;;;;5034419;28;1218;-72
2022/03/26 08:38:52;;;;;;;;;;;19.60;55.80;;;;;;5052246;28;1898;-72
2022/03/26 08:41:19;;;;;;;;;;;19.60;55.80;;;;;;5052443;28;859;-72
2022/03/26 08:43:44;;;;;;;;;;;19.60;55.80;;;;;;5052336;28;816;-72
2022/03/26 08:46:10;;;;;;;;;;;19.60;55.90;;;;;;5034548;28;752;-72
2022/03/26 08:48:35;;;;;;;;;;;19.60;55.90;;;;;;5034643;28;1251;-72
2022/03/26 08:51:01;;;;;;;;;;;19.60;56.00;;;;;;5052521;28;957;-72
2022/03/26 08:53:27;;;;;;;;;;;19.60;56.10;;;;;;5034646;28;1065;-72
2022/03/26 08:55:52;;;;;;;;;;;19.60;56.70;;;;;;5052049;28;858;-72
2022/03/26 08:58:18;;;;;;;;;;;19.60;56.10;;;;;;5034515;28;1902;-72
2022/03/26 09:00:45;;;;;;;;;;;19.60;56.20;;;;;;5052202;28;946;-71
2022/03/26 09:03:11;;;;;;;;;;;19.60;56.30;;;;;;5036246;28;1094;-71
2022/03/26 09:05:36;;;;;;;;;;;19.60;56.50;;;;;;5055785;28;752;-71
2022/03/26 09:08:02;;;;;;;;;;;19.60;56.60;;;;;;5055748;28;938;-72
2022/03/26 09:10:27;;;;;;;;;;;19.60;56.70;;;;;;5037849;28;1164;-72
2022/03/26 09:12:52;;;;;;;;;;;19.60;56.70;;;;;;5037549;28;1096;-72
2022/03/26 09:15:18;;;;;;;;;;;19.60;56.70;;;;;;5055818;28;954;-71
2022/03/26 09:17:43;;;;;;;;;;;19.60;56.80;;;;;;5055292;28;935;-71
2022/03/26 09:20:09;;;;;;;;;;;19.60;56.80;;;;;;5037813;28;1906;-71
2022/03/26 09:22:34;;;;;;;;;;;19.60;56.90;;;;;;5037693;28;835;-71
2022/03/26 09:25:00;;;;;;;;;;;19.60;56.90;;;;;;5037742;28;811;-71
2022/03/26 09:27:25;;;;;;;;;;;19.60;57.00;;;;;;5054804;28;1394;-72
2022/03/26 09:29:51;;;;;;;;;;;19.50;57.00;;;;;;5055415;28;1200;-71
2022/03/26 09:32:16;;;;;;;;;;;19.50;57.60;;;;;;5055542;28;883;-71
2022/03/26 09:34:42;;;;;;;;;;;19.50;57.10;;;;;;5037566;28;873;-72
2022/03/26 09:37:07;;;;;;;;;;;19.50;57.00;;;;;;5054974;28;1111;-72
2022/03/26 09:39:33;;;;;;;;;;;19.50;57.10;;;;;;5044457;23;3685;-72
2022/03/26 09:41:58;;;;;;;;;;;19.50;57.20;;;;;;5015362;28;2021;-71
2022/03/26 09:44:24;;;;;;;;;;;19.50;57.20;;;;;;5047799;28;1286;-71
2022/03/26 09:46:50;;;;;;;;;;;19.50;57.20;;;;;;5034121;28;1075;-72
2022/03/26 09:49:15;;;;;;;;;;;19.50;57.20;;;;;;5034752;28;1263;-71
2022/03/26 09:51:40;;;;;;;;;;;19.50;57.30;;;;;;5034784;28;846;-71
2022/03/26 09:54:07;;;;;;;;;;;19.50;57.30;;;;;;5033717;28;823;-71
2022/03/26 09:56:33;;;;;;;;;;;19.50;57.40;;;;;;5033877;28;1132;-72
2022/03/26 09:58:58;;;;;;;;;;;19.50;57.40;;;;;;5034217;28;1914;-72
2022/03/26 10:01:25;;;;;;;;;;;19.40;57.40;;;;;;5034466;28;812;-70
2022/03/26 10:04:10;;;;;;;;;;;19.50;57.50;;;;;;5034665;28;803;-72
2022/03/26 10:06:35;;;;;;;;;;;19.50;57.70;;;;;;5034360;28;856;-72
2022/03/26 10:09:00;;;;;;;;;;;19.40;57.90;;;;;;5034532;28;1212;-71
2022/03/26 10:11:30;;;;;;;;;;;19.40;58.10;;;;;;5033413;28;875;-72
2022/03/26 10:13:55;;;;;;;;;;;19.40;58.20;;;;;;5034671;28;905;-72
2022/03/26 10:16:21;;;;;;;;;;;19.50;58.20;;;;;;5034364;28;942;-72
2022/03/26 10:18:47;;;;;;;;;;;19.40;58.30;;;;;;5033473;28;1956;-71
2022/03/26 10:21:17;;;;;;;;;;;19.40;58.40;;;;;;5033172;28;870;-72
2022/03/26 10:23:49;;;;;;;;;;;19.40;58.50;;;;;;5033264;28;863;-73
2022/03/26 10:26:15;;;;;;;;;;;19.40;58.50;;;;;;5033847;28;787;-70
2022/03/26 10:28:40;;;;;;;;;;;19.40;58.60;;;;;;5008661;28;1573;-70
2022/03/26 10:34:01;;;;;;;;;;;19.30;58.60;;;;;;5017620;28;1211;-69
2022/03/26 10:36:27;;;;;;;;;;;19.30;58.60;;;;;;5032567;28;1096;-70
2022/03/26 10:38:52;;;;;;;;;;;19.30;58.70;;;;;;5032859;28;1948;-69
2022/03/26 10:41:20;;;;;;;;;;;19.30;58.70;;;;;;5033053;28;919;-70
2022/03/26 10:43:45;;;;;;;;;;;19.30;58.60;;;;;;5031631;28;847;-70
2022/03/26 10:46:10;;;;;;;;;;;19.30;58.70;;;;;;5031147;28;1216;-70
2022/03/26 10:48:36;;;;;;;;;;;19.30;58.70;;;;;;5030675;28;1223;-70
2022/03/26 10:51:06;;;;;;;;;;;19.30;58.80;;;;;;5026029;28;1770;-70
2022/03/26 10:53:32;;;;;;;;;;;19.30;58.70;;;;;;5015382;28;1010;-70
2022/03/26 10:55:58;;;;;;;;;;;19.30;58.70;;;;;;5013869;28;1280;-70
2022/03/26 10:58:23;;;;;;;;;;;19.30;58.70;;;;;;5014909;28;1906;-70
2022/03/26 11:00:48;;;;;;;;;;;19.30;58.70;;;;;;5014575;28;1232;-70
2022/03/26 11:03:14;;;;;;;;;;;19.20;58.70;;;;;;5032922;28;780;-70
2022/03/26 11:05:39;;;;;;;;;;;19.30;58.70;;;;;;5029561;28;746;-70
2022/03/26 11:08:05;;;;;;;;;;;19.20;58.70;;;;;;5014907;28;1193;-70
2022/03/26 11:10:30;;;;;;;;;;;19.30;58.80;;;;;;5013102;28;1257;-69
2022/03/26 11:12:56;;;;;;;;;;;19.30;58.70;;;;;;5029682;28;854;-70
2022/03/26 11:15:28;;;;;;;;;;;19.20;58.80;;;;;;5031711;28;871;-71
2022/03/26 11:18:06;;;;;;;;;;;19.20;58.80;;;;;;5032145;28;827;-70
2022/03/26 11:20:34;;;;;;;;;;;19.20;58.80;;;;;;5031840;28;1250;-70
2022/03/26 11:23:18;;;;;;;;;;;19.20;58.90;;;;;;5032252;28;920;-70
2022/03/26 11:25:48;;;;;;;;;;;19.20;58.80;;;;;;5031047;28;1103;-70
2022/03/26 11:28:32;;;;;;;;;;;19.20;58.90;;;;;;5046205;28;1271;-70
2022/03/26 11:31:00;;;;;;;;;;;19.20;59.00;;;;;;5051412;28;1322;-70
2022/03/26 11:33:25;;;;;;;;;;;19.20;59.00;;;;;;5034920;28;866;-70
2022/03/26 11:35:53;;;;;;;;;;;19.20;59.00;;;;;;5048695;28;1300;-70
2022/03/26 11:38:19;;;;;;;;;;;19.20;59.00;;;;;;5031763;28;1910;-70
2022/03/26 11:40:51;;;;;;;;;;;19.20;59.10;;;;;;5032645;28;1295;-70
2022/03/26 11:43:18;;;;;;;;;;;19.20;59.10;;;;;;5031858;28;891;-70
2022/03/26 11:51:22;;;;;;;;;;;19.10;59.20;;;;;;5032481;28;686;-70
2022/03/26 11:53:49;;;;;;;;;;;19.10;59.20;;;;;;5031516;28;874;-69
2022/03/26 11:56:21;;;;;;;;;;;19.10;59.20;;;;;;5031975;28;839;-69
2022/03/26 11:59:03;;;;;;;;;;;19.20;59.30;;;;;;5031355;28;1964;-69
2022/03/26 12:01:36;;;;;;;;;;;19.20;59.50;;;;;;5032820;28;1050;-69
2022/03/26 12:04:07;;;;;;;;;;;19.20;59.50;;;;;;5032737;28;874;-70
2022/03/26 12:06:39;;;;;;;;;;;19.20;59.50;;;;;;5031910;28;1094;-69
2022/03/26 12:09:05;;;;;;;;;;;19.10;59.50;;;;;;5031288;28;1364;-70
2022/03/26 12:11:34;;;;;;;;;;;19.10;59.70;;;;;;5031112;28;925;-69
2022/03/26 12:14:08;;;;;;;;;;;19.10;59.70;;;;;;5032606;28;1022;-70
2022/03/26 12:16:49;;;;;;;;;;;19.20;59.70;;;;;;5030524;28;1009;-70
2022/03/26 12:19:34;;;;;;;;;;;19.20;59.80;;;;;;5032342;28;1910;-70
2022/03/26 12:22:13;;;;;;;;;;;19.20;59.70;;;;;;5031447;28;2259;-70
2022/03/26 12:24:38;;;;;;;;;;;19.20;59.70;;;;;;5013625;28;1269;-70
2022/03/26 12:27:05;;;;;;;;;;;19.20;59.70;;;;;;5036392;28;1234;-73
2022/03/26 12:29:30;;;;;;;;;;;19.20;59.70;;;;;;5033177;28;1205;-72
2022/03/26 12:31:58;;;;;;;;;;;19.20;59.70;;;;;;5030951;28;1057;-72
2022/03/26 12:34:23;;;;;;;;;;;19.20;59.80;;;;;;5032561;28;1131;-69
2022/03/26 12:36:58;;;;;;;;;;;19.20;59.80;;;;;;5032824;28;1099;-71
2022/03/26 12:39:23;;;;;;;;;;;19.20;59.80;;;;;;5034832;28;1894;-71
2022/03/26 12:41:49;;;;;;;;;;;19.10;59.80;;;;;;5034652;28;1124;-71
2022/03/26 12:44:15;;;;;;;;;;;19.10;59.90;;;;;;5036121;28;974;-71
2022/03/26 12:46:40;;;;;;;;;;;19.10;59.90;;;;;;5034150;28;946;-71
2022/03/26 12:49:15;;;;;;;;;;;19.10;59.80;;;;;;5035677;28;1289;-71
2022/03/26 12:51:41;;;;;;;;;;;19.20;59.80;;;;;;5035633;28;823;-71
2022/03/26 12:54:06;;;;;;;;;;;19.10;59.80;;;;;;5035873;28;840;-72
2022/03/26 12:56:31;;;;;;;;;;;19.10;59.80;;;;;;5035226;28;943;-72
2022/03/26 12:58:57;;;;;;;;;;;19.20;59.90;;;;;;5034118;28;1965;-72
2022/03/26 13:01:23;;;;;;;;;;;19.10;59.90;;;;;;5034075;28;1626;-73
2022/03/26 13:03:49;;;;;;;;;;;19.10;60.00;;;;;;5035823;28;871;-73
2022/03/26 13:06:15;;;;;;;;;;;19.10;59.50;;;;;;5033615;28;903;-73
2022/03/26 13:08:47;;;;;;;;;;;19.10;58.70;;;;;;5034214;28;1250;-73
2022/03/26 13:11:12;;;;;;;;;;;19.10;58.20;;;;;;5035651;28;823;-73
2022/03/26 13:13:56;;;;;;;;;;;19.00;57.70;;;;;;5035356;28;923;-73
2022/03/26 13:16:24;;;;;;;;;;;19.00;57.30;;;;;;5017076;28;1724;-73
2022/03/26 13:19:10;;;;;;;;;;;18.90;57.30;;;;;;5033467;28;1903;-73
2022/03/26 13:21:37;;;;;;;;;;;18.90;57.40;;;;;;5035087;28;1135;-73
2022/03/26 13:24:04;;;;;;;;;;;18.90;57.20;;;;;;5035119;28;815;-73
2022/03/26 13:26:48;;;;;;;;;;;18.90;57.00;;;;;;5034662;28;1303;-73
2022/03/26 13:29:23;;;;;;;;;;;18.80;56.70;;;;;;5032829;28;1278;-73
2022/03/26 13:31:49;;;;;;;;;;;18.80;56.70;;;;;;5015942;28;1108;-73
2022/03/26 13:34:16;;;;;;;;;;;18.80;56.50;;;;;;5033996;28;898;-73
2022/03/26 13:36:42;;;;;;;;;;;18.70;56.50;;;;;;5034624;28;1194;-73
2022/03/26 13:39:21;;;;;;;;;;;18.80;56.40;;;;;;5034649;28;2251;-73
2022/03/26 13:41:46;;;;;;;;;;;18.70;56.20;;;;;;5033121;28;922;-73
2022/03/26 13:44:12;;;;;;;;;;;18.70;56.10;;;;;;5033712;28;860;-73
2022/03/26 13:46:37;;;;;;;;;;;18.70;56.10;;;;;;5034118;28;800;-73
2022/03/26 13:49:03;;;;;;;;;;;18.70;56.00;;;;;;5033933;28;1197;-73
2022/03/26 13:51:29;;;;;;;;;;;18.60;55.80;;;;;;5034287;28;914;-73
2022/03/26 13:53:55;;;;;;;;;;;18.60;55.80;;;;;;5033407;28;796;-73
2022/03/26 13:56:24;;;;;;;;;;;18.60;55.80;;;;;;5032950;28;881;-73
2022/03/26 13:58:50;;;;;;;;;;;18.60;55.70;;;;;;5033158;28;1934;-73
2022/03/26 14:01:16;;;;;;;;;;;18.60;55.70;;;;;;5034542;28;780;-73
2022/03/26 14:03:41;;;;;;;;;;;18.60;55.70;;;;;;5017058;28;1162;-73
2022/03/26 14:06:07;;;;;;;;;;;18.50;55.60;;;;;;5033704;28;835;-73
2022/03/26 14:08:33;;;;;;;;;;;18.60;55.60;;;;;;5033106;28;877;-73
2022/03/26 14:10:58;;;;;;;;;;;18.50;55.50;;;;;;5032911;28;1282;-73
2022/03/26 14:13:24;;;;;;;;;;;18.50;55.50;;;;;;5033974;28;695;-73
2022/03/26 14:15:49;;;;;;;;;;;18.50;55.50;;;;;;5033485;28;854;-73
2022/03/26 14:18:15;;;;;;;;;;;18.50;55.40;;;;;;5033129;28;1966;-73
2022/03/26 14:20:40;;;;;;;;;;;18.50;55.40;;;;;;5034200;28;1204;-73
2022/03/26 14:23:07;;;;;;;;;;;18.50;55.30;;;;;;5032446;28;812;-73
2022/03/26 14:25:33;;;;;;;;;;;18.50;55.30;;;;;;5032510;28;887;-73
2022/03/26 14:27:58;;;;;;;;;;;18.50;55.20;;;;;;5034025;28;1291;-73
2022/03/26 14:30:24;;;;;;;;;;;18.50;55.10;;;;;;5033550;28;1318;-73
2022/03/26 14:32:50;;;;;;;;;;;18.40;55.00;;;;;;5015977;28;1551;-74
2022/03/26 14:35:15;;;;;;;;;;;18.40;54.90;;;;;;5033963;28;796;-73
2022/03/26 14:37:40;;;;;;;;;;;18.40;54.90;;;;;;5033248;28;1138;-73
2022/03/26 14:40:06;;;;;;;;;;;18.40;54.80;;;;;;5032184;28;1968;-73